Fort Worth Alliance Airport Fort Worth US
ICAO: KAFW
IATA: AFW
Category: Large
Scheduled Services: No

Elevation: 722 ft
TransAlt. 18000 ft.

Airport Communications:
RGNL APP/DEP:118.1
ASOS:126.925
ATIS:126.925
CLNC DEL:128.725
GND:132.65
ALLIANCE TWR:120.825

KAFW Zoom In..

If you have problems with the map follow the link
https://www.worldairports.se/pages/airport.php?
ICAO=KAFW

Runways:

(A) RW 16L length 9600 ft width 150 ft
ILS 110.15 / hdg 163

(B) RW 16R length 8220 ft width 150 ft
---- / hdg 163

(C) RW 34L length 8220 ft width 150 ft
---- / hdg 343

(D) RW 34R length 9600 ft width 150 ft
ILS 110.15 / hdg 343

Location; KAFW
Day. 21 / Time. 18.53 Zulu
* Altimeter: 30.30
* Temperature: 20° c. 68°f.
* Wind from: 180° Speed 05 kn.
Dewpoint: 04° c.
Visibility: 10 Statute Miles.
Clouds: Scattered 25000 ft.

KAFW 211853Z 18005KT 10SM SCT250 20/04 A3030 RMK AO2 PRESFR SLP255 T02000039 $


Wind From 180°
Speed 05 kn.

 
 
jpsmedia.com for Web Design worldairports.se 2018   terms of use